Data for 12/25/2006

Time Sea-Level Adjusted Pressure Absolute Pressure Temperature Relative Humidity Dew Point   
(mb) (inHg) (mb) (inHg) (C) (F) (%) (C) (F)
00:05 1023 30.21 852 25.16 -4.9 23.1 49 -14 6.8
00:10 1023 30.21 852 25.16 -5 22.9 49 -14.2 6.5
00:15 1023 30.21 852 25.16 -5.1 22.9 49 -14.2 6.5
00:20 1023 30.21 852 25.16 -4.9 23.2 47 -14.5 5.9
00:25 1022 30.18 852 25.16 -4.8 23.4 47 -14.4 6
00:30 1022 30.18 852 25.16 -4.6 23.7 46 -14.6 5.8
00:35 1022 30.18 852 25.16 -4.7 23.6 47 -14.4 6
00:40 1022 30.18 851 25.13 -4.7 23.5 47 -14.3 6.3
00:45 1022 30.18 851 25.13 -4.6 23.7 48 -14 6.9
00:50 1022 30.18 851 25.13 -4.7 23.6 48 -14 6.8
00:55 1022 30.18 851 25.13 -4.5 23.9 48 -14 6.8
01:00 1022 30.18 851 25.13 -4.5 23.8 48 -14.1 6.7
01:05 1022 30.18 851 25.13 -4 24.7 45 -14.2 6.4
01:10 1022 30.18 851 25.13 -3.8 25.2 46 -13.8 7.2
01:15 1022 30.18 851 25.13 -4 24.8 50 -12.9 8.7
01:20 1022 30.18 851 25.13 -4.2 24.4 51 -13.1 8.5
01:25 1022 30.18 851 25.13 -4.2 24.4 50 -13.2 8.3
01:30 1022 30.18 851 25.13 -4 24.8 46 -14.1 6.6
01:35 1022 30.18 851 25.13 -3.8 25.1 45 -14 6.8
01:40 1022 30.18 851 25.13 -3.6 25.4 44 -14.3 6.2
01:45 1021 30.15 851 25.13 -3.1 26.3 41 -14.6 5.8
01:50 1021 30.15 851 25.13 -3.2 26.3 43 -14 6.8
01:55 1021 30.15 851 25.13 -3.4 25.8 47 -13.2 8.3
02:00 1021 30.15 851 25.13 -3.5 25.6 47 -13.4 7.8
02:05 1021 30.15 851 25.13 -3.2 26.2 44 -13.7 7.3
02:10 1021 30.15 851 25.13 -3.1 26.5 44 -13.8 7.1
02:15 1021 30.15 850 25.1 -2.9 26.7 42 -14.1 6.6
02:20 1021 30.15 850 25.1 -2.8 27 42 -14 6.7
02:25 1021 30.15 850 25.1 -2.7 27.2 43 -13.5 7.7
02:30 1021 30.15 850 25.1 -2.7 27.1 43 -13.8 7.2
02:35 1021 30.15 850 25.1 -2.5 27.5 41 -14 6.8
02:40 1021 30.15 850 25.1 -2.4 27.7 43 -13.4 7.8
02:45 1020 30.12 850 25.1 -2.5 27.5 43 -13.4 7.9
02:50 1021 30.15 850 25.1 -2.5 27.5 43 -13.5 7.6
02:55 1021 30.15 850 25.1 -2.6 27.3 44 -13.2 8.2
03:00 1020 30.12 850 25.1 -2.7 27.2 43 -13.6 7.6
03:05 1020 30.12 849 25.07 -2.6 27.3 43 -13.4 7.8
03:10 1020 30.12 849 25.07 -2.4 27.7 43 -13.3 8.1
03:15 1020 30.12 849 25.07 -2.5 27.5 46 -12.5 9.5
03:20 1020 30.12 849 25.07 -2.7 27.1 49 -12.1 10.2
03:25 1020 30.12 849 25.07 -2.4 27.7 42 -13.6 7.6
03:30 1020 30.12 849 25.07 -1.8 28.8 43 -12.9 8.8
03:35 1020 30.12 849 25.07 -1.9 28.6 43 -12.8 9
03:40 1020 30.12 849 25.07 -1.9 28.6 43 -12.8 9
03:45 1020 30.12 849 25.07 -1.7 29 42 -13.1 8.5
03:50 1020 30.12 849 25.07 -1.6 29.2 42 -12.8 8.9
03:55 1020 30.12 849 25.07 -1.8 28.8 43 -12.7 9.1
04:00 1020 30.12 849 25.07 -2.1 28.3 46 -12.1 10.1
04:05 1020 30.12 849 25.07 -2.3 27.9 47 -12.1 10.2
04:10 1019 30.09 849 25.07 -2.3 27.8 47 -12.2 10
04:15 1020 30.12 849 25.07 -2.1 28.2 47 -12 10.4
04:20 1019 30.09 849 25.07 -2.3 27.9 48 -11.7 10.9
04:25 1020 30.12 849 25.07 -2.2 28.1 48 -11.7 11
04:30 1020 30.12 849 25.07 -2.4 27.8 48 -11.9 10.6
04:35 1019 30.09 849 25.07 -2.6 27.3 50 -11.8 10.8
04:40 1020 30.12 849 25.07 -2.7 27.1 50 -11.7 10.9
04:45 1019 30.09 849 25.07 -2.8 27 52 -11.4 11.5
04:50 1019 30.09 848 25.04 -2.9 26.9 53 -11.1 12.1
04:55 1019 30.09 848 25.04 -3.1 26.4 56 -10.8 12.6
05:00 1019 30.09 848 25.04 -3.2 26.3 55 -11 12.3
05:05 1019 30.09 848 25.04 -3.2 26.2 55 -11.1 12
05:10 1019 30.09 848 25.04 -3.2 26.2 55 -11.1 11.9
05:15 1019 30.09 848 25.04 -3.1 26.4 54 -11.2 11.8
05:20 1019 30.09 848 25.04 -2.8 27 53 -11.1 12
05:25 1019 30.09 848 25.04 -2.3 27.9 52 -10.9 12.3
05:30 1019 30.09 848 25.04 -1.8 28.7 49 -11.1 12.1
05:35 1019 30.09 848 25.04 -1.6 29.1 50 -10.8 12.5
05:40 1019 30.09 848 25.04 -1.6 29.2 51 -10.4 13.3
05:45 1019 30.09 848 25.04 -1.7 29 54 -9.9 14.2
05:50 1018 30.06 848 25.04 -1.7 28.9 55 -9.7 14.5
05:55 1018 30.06 848 25.04 -1.7 29 54 -9.8 14.4
06:00 1018 30.06 848 25.04 -1.4 29.5 56 -9.1 15.5
06:05 1018 30.06 847 25.01 -1.6 29.2 52 -10.1 13.9
06:10 1018 30.06 848 25.04 -1.4 29.4 49 -10.8 12.5
06:15 1018 30.06 847 25.01 -1.6 29.1 55 -9.5 15
06:20 1018 30.06 847 25.01 -1.7 28.9 56 -9.4 15.1
06:25 1018 30.06 848 25.04 -1.8 28.7 59 -8.9 16
06:30 1018 30.06 848 25.04 -2 28.4 59 -9.1 15.7
06:35 1018 30.06 848 25.04 -2.1 28.2 57 -9.6 14.8
06:40 1018 30.06 848 25.04 -2.2 28 57 -9.6 14.6
06:45 1018 30.06 848 25.04 -2.3 27.8 57 -9.6 14.7
06:50 1018 30.06 848 25.04 -2.2 28 54 -10.3 13.5
06:55 1018 30.06 847 25.01 -1.9 28.6 55 -9.9 14.3
07:00 1018 30.06 847 25.01 -1.9 28.7 55 -9.8 14.4
07:05 1018 30.06 847 25.01 -1.9 28.6 55 -9.8 14.4
07:10 1018 30.06 848 25.04 -1.4 29.5 50 -10.6 12.9
07:15 1018 30.06 848 25.04 -1 30.1 45 -11.4 11.4
07:20 1018 30.06 848 25.04 -0.9 30.4 52 -9.6 14.7
07:25 1018 30.06 848 25.04 -1.2 29.9 51 -10 13.9
07:30 1018 30.06 848 25.04 -1.3 29.7 55 -9.3 15.3
07:35 1018 30.06 848 25.04 -1.4 29.5 53 -9.7 14.5
07:40 1018 30.06 848 25.04 -1.4 29.4 55 -9.4 15
07:45 1018 30.06 848 25.04 -1.9 28.5 54 -10 14.1
07:50 1018 30.06 848 25.04 -1.9 28.6 57 -9.3 15.3
07:55 1018 30.06 848 25.04 -2.2 28.1 61 -8.7 16.3
08:00 1018 30.06 848 25.04 -2.1 28.2 59 -9 15.8
08:05 1019 30.09 848 25.04 -1.8 28.8 60 -8.6 16.6
08:10 1019 30.09 848 25.04 -2.2 28.1 61 -8.6 16.5
08:15 1018 30.06 848 25.04 -2.4 27.7 63 -8.4 16.9
08:20 1018 30.06 847 25.01 -3.1 26.4 67 -8.5 16.7
08:25 1018 30.06 847 25.01 -3.1 26.4 62 -9.3 15.2
08:30 1018 30.06 847 25.01 -3.3 26.1 64 -9.1 15.7
08:35 1018 30.06 847 25.01 -3 26.5 60 -9.7 14.5
08:40 1018 30.06 847 25.01 -1.8 28.8 55 -9.6 14.7
08:45 1018 30.06 847 25.01 -1.8 28.8 59 -8.7 16.3
08:50 1018 30.06 847 25.01 -2.4 27.6 61 -9.1 15.7
08:55 1018 30.06 847 25.01 -2.2 28 59 -9.2 15.4
09:00 1018 30.06 847 25.01 -2.1 28.2 58 -9.3 15.3
09:05 1018 30.06 847 25.01 -1.9 28.5 57 -9.4 15
09:10 1018 30.06 847 25.01 -2.1 28.2 59 -9.1 15.5
09:15 1018 30.06 847 25.01 -2.1 28.2 56 -9.8 14.3
09:20 1018 30.06 847 25.01 -1.6 29.2 53 -9.9 14.2
09:25 1018 30.06 847 25.01 -1 30.3 50 -10.1 13.8
09:30 1018 30.06 847 25.01 -0.1 31.8 49 -9.7 14.6
09:35 1018 30.06 847 25.01 -0.1 31.8 50 -9.5 15
09:40 1018 30.06 847 25.01 0.5 32.9 48 -9.2 15.4
09:45 1018 30.06 847 25.01 0.8 33.5 47 -9.2 15.4
09:50 1018 30.06 847 25.01 1.2 34.1 43 -10.1 13.8
09:55 1018 30.06 847 25.01 1.2 34.1 41 -10.6 12.9
10:00 1018 30.06 847 25.01 1.5 34.8 43 -9.6 14.7
10:05 1018 30.06 847 25.01 2.2 36 41 -9.7 14.5
10:10 1018 30.06 847 25.01 2.7 36.8 40 -9.7 14.6
10:15 1018 30.06 847 25.01 3.2 37.8 40 -9.1 15.6
10:20 1018 30.06 847 25.01 3.6 38.5 40 -8.8 16.1
10:25 1018 30.06 847 25.01 4.2 39.5 40 -8.3 17
10:30 1018 30.06 847 25.01 4.5 40.1 40 -8 17.5
10:35 1018 30.06 847 25.01 4.6 40.2 41 -7.6 18.4
10:40 1018 30.06 847 25.01 4.7 40.5 40 -7.6 18.3
10:45 1018 30.06 847 25.01 5.2 41.3 40 -7.2 19
10:50 1018 30.06 847 25.01 5.5 41.9 40 -7 19.4
10:55 1018 30.06 847 25.01 5.6 42.1 40 -6.8 19.7
11:00 1018 30.06 847 25.01 6.1 43.1 39 -6.6 20
11:05 1018 30.06 847 25.01 6.6 43.9 39 -6.4 20.5
11:10 1018 30.06 847 25.01 6.7 44.1 39 -6.3 20.7
11:15 1018 30.06 847 25.01 6.9 44.4 39 -6.2 20.8
11:20 1018 30.06 847 25.01 7.6 45.6 37 -6.1 20.9
11:25 1018 30.06 847 25.01 8 46.5 38 -5.5 22.1
11:30 1018 30.06 847 25.01 8 46.3 39 -5.2 22.7
11:35 1018 30.06 847 25.01 7.6 45.6 39 -5.6 21.8
11:40 1018 30.06 847 25.01 6.7 44.1 39 -6.2 20.8
11:45 1018 30.06 847 25.01 5.7 42.3 42 -6.3 20.6
11:50 1018 30.06 847 25.01 5.8 42.5 41 -6.5 20.3
11:55 1018 30.06 847 25.01 6.2 43.2 40 -6.4 20.4
12:00 1018 30.06 847 25.01 6.3 43.3 42 -5.7 21.8
12:05 1018 30.06 847 25.01 6.8 44.2 40 -6.1 21.1
12:10 1018 30.06 847 25.01 7.2 45 39 -5.8 21.5
12:15 1018 30.06 847 25.01 6.8 44.3 41 -5.5 22.1
12:20 1017 30.03 847 25.01 6.7 44.1 41 -5.7 21.8
12:25 1017 30.03 847 25.01 6.2 43.2 42 -5.6 21.9
12:30 1017 30.03 847 25.01 5.9 42.7 44 -5.5 22.1
12:35 1017 30.03 846 24.98 5.9 42.6 44 -5.3 22.5
12:40 1017 30.03 846 24.98 6.1 43 44 -5.4 22.3
12:45 1017 30.03 846 24.98 6.8 44.3 42 -5.2 22.6
12:50 1017 30.03 846 24.98 7 44.7 43 -4.7 23.6
12:55 1017 30.03 846 24.98 7.6 45.6 41 -4.9 23.2
13:00 1017 30.03 846 24.98 7.9 46.2 41 -4.5 24
13:05 1017 30.03 846 24.98 8.2 46.8 39 -4.9 23.3
13:10 1017 30.03 846 24.98 8.2 46.7 40 -4.5 23.9
13:15 1017 30.03 846 24.98 7.9 46.2 41 -4.5 23.9
13:20 1017 30.03 846 24.98 7.8 46.1 41 -4.7 23.6
13:25 1017 30.03 846 24.98 7.5 45.6 42 -4.6 23.6
13:30 1017 30.03 846 24.98 7.6 45.7 42 -4.5 23.9
13:35 1017 30.03 846 24.98 7.3 45.1 43 -4.5 24
13:40 1017 30.03 846 24.98 7.1 44.7 44 -4.4 24.1
13:45 1017 30.03 846 24.98 6.9 44.4 45 -4.3 24.3
13:50 1017 30.03 846 24.98 6.9 44.4 45 -4.3 24.2
13:55 1017 30.03 846 24.98 6.9 44.5 45 -4.2 24.5
14:00 1017 30.03 846 24.98 6.9 44.4 46 -3.8 25.1
14:05 1017 30.03 846 24.98 6.9 44.3 45 -4.1 24.6
14:10 1017 30.03 846 24.98 7 44.6 45 -4.2 24.5
14:15 1017 30.03 846 24.98 7.3 45.1 45 -3.9 24.9
14:20 1016 30 846 24.98 7.2 44.9 45 -3.8 25.1
14:25 1016 30 846 24.98 7.6 45.8 43 -4.2 24.4
14:30 1016 30 846 24.98 7.7 45.8 43 -4.1 24.6
14:35 1016 30 846 24.98 7.6 45.8 43 -4.2 24.4
14:40 1016 30 846 24.98 7.6 45.7 44 -4 24.8
14:45 1017 30.03 846 24.98 7.4 45.3 44 -4 24.9
14:50 1017 30.03 846 24.98 7.5 45.4 43 -4.4 24.1
14:55 1017 30.03 846 24.98 7.5 45.4 44 -4.1 24.7
15:00 1017 30.03 846 24.98 7.4 45.3 45 -3.9 25
15:05 1017 30.03 846 24.98 7.3 45.1 44 -4.1 24.6
15:10 1017 30.03 846 24.98 7.1 44.8 45 -4.1 24.6
15:15 1017 30.03 846 24.98 7.1 44.8 46 -3.7 25.3
15:20 1017 30.03 846 24.98 7.4 45.3 44 -4.2 24.4
15:25 1017 30.03 846 24.98 7.2 45 46 -3.6 25.6
15:30 1017 30.03 846 24.98 6.9 44.5 47 -3.6 25.6
15:35 1017 30.03 846 24.98 7.1 44.7 46 -3.6 25.4
15:40 1017 30.03 846 24.98 7 44.6 47 -3.6 25.5
15:45 1017 30.03 846 24.98 7.2 45 46 -3.8 25.2
15:50 1017 30.03 846 24.98 7.1 44.8 46 -3.8 25.1
15:55 1017 30.03 846 24.98 7.2 44.9 46 -3.6 25.6
16:00 1017 30.03 846 24.98 7.1 44.8 46 -3.7 25.3
16:05 1017 30.03 846 24.98 7 44.6 48 -3.1 26.3
16:10 1017 30.03 846 24.98 6.8 44.2 47 -3.7 25.4
16:15 1017 30.03 846 24.98 6.6 43.9 50 -3.1 26.3
16:20 1017 30.03 846 24.98 6.5 43.6 48 -3.7 25.4
16:25 1017 30.03 846 24.98 6.7 44 49 -3.3 26
16:30 1017 30.03 846 24.98 6.5 43.8 49 -3.3 26
16:35 1017 30.03 846 24.98 6.4 43.6 49 -3.4 25.9
16:40 1017 30.03 846 24.98 6.5 43.6 47 -4 24.8
16:45 1017 30.03 846 24.98 6.8 44.2 48 -3.6 25.6
16:50 1017 30.03 846 24.98 6.5 43.7 48 -3.6 25.6
16:55 1017 30.03 846 24.98 6.4 43.5 50 -3.4 25.9
17:00 1017 30.03 846 24.98 6.4 43.5 49 -3.6 25.5
17:05 1017 30.03 846 24.98 6.6 43.9 49 -3.3 26
17:10 1017 30.03 846 24.98 6.4 43.5 51 -3.1 26.5
17:15 1017 30.03 846 24.98 6.2 43.2 51 -3 26.5
17:20 1017 30.03 846 24.98 6.3 43.4 48 -3.8 25.1
17:25 1017 30.03 846 24.98 6.6 43.8 49 -3.5 25.7
17:30 1017 30.03 846 24.98 6.7 44 48 -3.4 25.8
17:35 1017 30.03 846 24.98 6.4 43.6 49 -3.4 25.8
17:40 1017 30.03 846 24.98 6.4 43.6 48 -3.8 25.2
17:45 1017 30.03 846 24.98 6.5 43.8 48 -3.6 25.6
17:50 1017 30.03 846 24.98 6.4 43.5 50 -3.3 26.1
17:55 1017 30.03 846 24.98 6.2 43.2 49 -3.6 25.5
18:00 1017 30.03 846 24.98 6.3 43.3 50 -3.4 25.9
18:05 1017 30.03 846 24.98 6.1 42.9 51 -3.3 26
18:10 1017 30.03 846 24.98 6 42.9 52 -3.1 26.4
18:15 1017 30.03 846 24.98 5.9 42.6 52 -3.1 26.4
18:20 1017 30.03 846 24.98 5.9 42.6 52 -3.1 26.4
18:25 1017 30.03 846 24.98 5.9 42.6 53 -3 26.5
18:30 1017 30.03 846 24.98 5.7 42.3 54 -2.8 26.9
18:35 1017 30.03 846 24.98 5.6 42.1 53 -3.2 26.2
18:40 1017 30.03 846 24.98 5.8 42.5 52 -3.3 26.1
18:45 1017 30.03 847 25.01 6 42.8 53 -3 26.7
18:50 1017 30.03 846 24.98 5.7 42.3 56 -2.4 27.7
18:55 1017 30.03 846 24.98 5.4 41.7 57 -2.3 27.8
19:00 1017 30.03 846 24.98 5 41 58 -2.5 27.5
19:05 1017 30.03 846 24.98 4.9 40.9 58 -2.6 27.2
19:10 1017 30.03 846 24.98 5 41 57 -2.7 27.2
19:15 1017 30.03 846 24.98 5.1 41.2 56 -2.8 26.9
19:20 1017 30.03 846 24.98 4.9 40.8 60 -2.3 27.8
19:25 1017 30.03 846 24.98 4.2 39.6 62 -2.5 27.5
19:30 1017 30.03 846 24.98 4.1 39.4 61 -2.7 27.2
19:35 1017 30.03 846 24.98 4.2 39.6 61 -2.7 27.2
19:40 1017 30.03 846 24.98 4.3 39.7 60 -2.8 27
19:45 1017 30.03 846 24.98 4.3 39.8 60 -2.7 27.2
19:50 1017 30.03 846 24.98 4.3 39.8 60 -2.7 27.1
19:55 1017 30.03 846 24.98 4.3 39.8 60 -2.7 27.1
20:00 1017 30.03 846 24.98 4.3 39.7 62 -2.4 27.6
20:05 1017 30.03 846 24.98 4.1 39.4 62 -2.5 27.5
20:10 1017 30.03 846 24.98 4 39.3 62 -2.6 27.3
20:15 1017 30.03 846 24.98 4.2 39.5 61 -2.6 27.2
20:20 1017 30.03 846 24.98 4.2 39.6 60 -2.8 26.9
20:25 1017 30.03 846 24.98 4.2 39.6 60 -2.9 26.8
20:30 1017 30.03 846 24.98 4.3 39.7 60 -2.7 27.1
20:35 1017 30.03 846 24.98 4.1 39.3 61 -2.8 27
20:40 1017 30.03 846 24.98 4.1 39.4 60 -2.9 26.8
20:45 1017 30.03 846 24.98 3.8 38.9 61 -3.1 26.4
20:50 1017 30.03 846 24.98 3.9 39.1 60 -3.2 26.3
20:55 1017 30.03 846 24.98 4 39.1 59 -3.3 26.1
21:00 1017 30.03 847 25.01 4 39.3 59 -3.3 26.1
21:05 1017 30.03 847 25.01 4.2 39.5 58 -3.3 26
21:10 1018 30.06 847 25.01 4.3 39.7 58 -3.3 26.1
21:15 1018 30.06 847 25.01 4.4 39.9 58 -3.2 26.2
21:20 1018 30.06 847 25.01 4.3 39.8 58 -3.2 26.2
21:25 1018 30.06 847 25.01 4.2 39.6 59 -3.1 26.5
21:30 1018 30.06 847 25.01 3.9 39 61 -2.9 26.8
21:35 1018 30.06 847 25.01 4 39.1 61 -2.9 26.7
21:40 1018 30.06 847 25.01 3.8 38.9 61 -3 26.7
21:45 1017 30.03 847 25.01 3.6 38.4 62 -2.9 26.7
21:50 1017 30.03 847 25.01 3.4 38.1 62 -3.1 26.4
21:55 1017 30.03 847 25.01 3.4 38.1 63 -3 26.5
22:00 1017 30.03 847 25.01 3.4 38.1 63 -3.1 26.5
22:05 1017 30.03 846 24.98 3.3 38 63 -3 26.6
22:10 1017 30.03 846 24.98 3.4 38.1 63 -3.1 26.5
22:15 1017 30.03 846 24.98 3.5 38.2 62 -3.2 26.3
22:20 1017 30.03 846 24.98 3.5 38.2 63 -3 26.6
22:25 1017 30.03 846 24.98 3.4 38.1 63 -3.1 26.5
22:30 1017 30.03 847 25.01 3.4 38.2 63 -3 26.6
22:35 1017 30.03 847 25.01 3.4 38.1 63 -3 26.6
22:40 1017 30.03 847 25.01 3.4 38.1 63 -3 26.6
22:45 1017 30.03 847 25.01 3.4 38.2 63 -3 26.6
22:50 1017 30.03 847 25.01 3.5 38.3 63 -3 26.6
22:55 1017 30.03 847 25.01 3.4 38.1 63 -2.9 26.8
23:00 1017 30.03 847 25.01 3.3 37.9 65 -2.8 27
23:05 1017 30.03 847 25.01 3.2 37.7 64 -2.9 26.8
23:10 1017 30.03 847 25.01 3.3 37.9 64 -2.8 26.9
23:15 1017 30.03 847 25.01 3.3 37.9 64 -2.8 26.9
23:20 1017 30.03 847 25.01 3.3 38 64 -2.8 27
23:25 1017 30.03 847 25.01 3.3 38 65 -2.6 27.2
23:30 1017 30.03 847 25.01 3.1 37.6 66 -2.7 27.2
23:35 1017 30.03 847 25.01 3.1 37.5 65 -2.9 26.8
23:40 1017 30.03 847 25.01 3.3 37.9 64 -2.8 26.9
23:45 1017 30.03 847 25.01 3.6 38.5 63 -2.8 27
23:50 1017 30.03 847 25.01 3.8 38.8 61 -3 26.7
23:55 1017 30.03 846 24.98 3.8 38.9 62 -2.8 27
24:00 1017 30.03 846 24.98 3.9 39 62 -2.7 27.1